Terminal Aerodrome Forecast
Issued by NWS Wichita, KS

Home | Current Version | Previous Version | Text Only | Print | Product List | Glossary On
Versions: 1 2 3 4 5 6 7 8 9 10 11 12 13 14 15 16 17 18 19 20 21 22 23 24 25 26 27 28 29 30 31 32 33 34 35 36 37 38 39 40 41 42 43 44 45 46 47
000
FTUS43 KICT 221727
TAFICT
TAF
KICT 221727Z 2218/2318 18025G35KT P6SM SCT020
     FM222200 21015G22KT P6SM VCSH SCT050
     FM230000 32018G28KT 5SM -SHRA BR BKN015
     FM230400 36022G32KT 4SM -SHRA BR OVC008
     FM230700 36022G32KT P6SM OVC015
     FM231100 36022G31KT P6SM OVC020=

USA.gov is the U.S. government's official web portal to all federal, state and local government web resources and services.